sensor_id;sensor_type;location;lat;lon;timestamp;temperature;humidity
33955;DHT22;20233;50.804;7.126;2023-03-23T00:00:58;13.90;99.90
33955;DHT22;20233;50.804;7.126;2023-03-23T00:03:24;13.90;99.90
33955;DHT22;20233;50.804;7.126;2023-03-23T00:05:51;13.90;99.90
33955;DHT22;20233;50.804;7.126;2023-03-23T00:08:19;13.90;99.90
33955;DHT22;20233;50.804;7.126;2023-03-23T00:10:50;13.90;99.90
33955;DHT22;20233;50.804;7.126;2023-03-23T00:13:26;13.90;99.90
33955;DHT22;20233;50.804;7.126;2023-03-23T00:15:52;13.90;99.90
33955;DHT22;20233;50.804;7.126;2023-03-23T00:18:21;13.90;99.90
33955;DHT22;20233;50.804;7.126;2023-03-23T00:20:53;13.90;99.90
33955;DHT22;20233;50.804;7.126;2023-03-23T00:23:20;13.90;99.90
33955;DHT22;20233;50.804;7.126;2023-03-23T00:25:47;13.90;99.90
33955;DHT22;20233;50.804;7.126;2023-03-23T00:28:13;13.90;99.90
33955;DHT22;20233;50.804;7.126;2023-03-23T00:30:40;13.90;99.90
33955;DHT22;20233;50.804;7.126;2023-03-23T00:33:07;13.90;99.90
33955;DHT22;20233;50.804;7.126;2023-03-23T00:35:33;13.80;99.90
33955;DHT22;20233;50.804;7.126;2023-03-23T00:38:01;13.90;99.90
33955;DHT22;20233;50.804;7.126;2023-03-23T00:40:27;13.90;99.90
33955;DHT22;20233;50.804;7.126;2023-03-23T00:42:53;13.90;99.90
33955;DHT22;20233;50.804;7.126;2023-03-23T00:45:19;13.90;99.90
33955;DHT22;20233;50.804;7.126;2023-03-23T00:47:44;13.90;99.90
33955;DHT22;20233;50.804;7.126;2023-03-23T00:50:16;13.90;99.90
33955;DHT22;20233;50.804;7.126;2023-03-23T00:52:43;13.80;99.90
33955;DHT22;20233;50.804;7.126;2023-03-23T00:55:09;13.80;99.90
33955;DHT22;20233;50.804;7.126;2023-03-23T00:57:35;13.80;99.90
33955;DHT22;20233;50.804;7.126;2023-03-23T01:00:00;13.90;99.90
33955;DHT22;20233;50.804;7.126;2023-03-23T01:02:26;13.80;99.90
33955;DHT22;20233;50.804;7.126;2023-03-23T01:04:51;13.80;99.90
33955;DHT22;20233;50.804;7.126;2023-03-23T01:07:20;13.80;99.90
33955;DHT22;20233;50.804;7.126;2023-03-23T01:09:48;13.80;99.90
33955;DHT22;20233;50.804;7.126;2023-03-23T01:12:14;13.80;99.90
33955;DHT22;20233;50.804;7.126;2023-03-23T01:14:41;13.80;99.90
33955;DHT22;20233;50.804;7.126;2023-03-23T01:17:07;13.80;99.90
33955;DHT22;20233;50.804;7.126;2023-03-23T01:19:32;13.90;99.90
33955;DHT22;20233;50.804;7.126;2023-03-23T01:21:58;13.80;99.90
33955;DHT22;20233;50.804;7.126;2023-03-23T01:24:23;13.90;99.90
33955;DHT22;20233;50.804;7.126;2023-03-23T01:26:49;13.80;99.90
33955;DHT22;20233;50.804;7.126;2023-03-23T01:29:14;13.80;99.90
33955;DHT22;20233;50.804;7.126;2023-03-23T01:31:40;13.80;99.90
33955;DHT22;20233;50.804;7.126;2023-03-23T01:34:08;13.80;99.90
33955;DHT22;20233;50.804;7.126;2023-03-23T01:36:35;13.80;99.90
33955;DHT22;20233;50.804;7.126;2023-03-23T01:39:03;13.80;99.90
33955;DHT22;20233;50.804;7.126;2023-03-23T01:41:30;13.80;99.90
33955;DHT22;20233;50.804;7.126;2023-03-23T01:46:41;13.80;99.90
33955;DHT22;20233;50.804;7.126;2023-03-23T01:49:13;13.80;99.90
33955;DHT22;20233;50.804;7.126;2023-03-23T01:51:44;13.80;99.90
33955;DHT22;20233;50.804;7.126;2023-03-23T01:54:14;13.80;99.90
33955;DHT22;20233;50.804;7.126;2023-03-23T01:56:48;13.80;99.90
33955;DHT22;20233;50.804;7.126;2023-03-23T01:59:15;13.80;99.90
33955;DHT22;20233;50.804;7.126;2023-03-23T02:01:41;13.80;99.90
33955;DHT22;20233;50.804;7.126;2023-03-23T02:04:11;13.70;99.90
33955;DHT22;20233;50.804;7.126;2023-03-23T02:06:38;13.80;99.90
33955;DHT22;20233;50.804;7.126;2023-03-23T02:09:04;13.70;99.90
33955;DHT22;20233;50.804;7.126;2023-03-23T02:11:32;13.60;99.90
33955;DHT22;20233;50.804;7.126;2023-03-23T02:13:57;13.60;99.90
33955;DHT22;20233;50.804;7.126;2023-03-23T02:16:34;13.60;99.90
33955;DHT22;20233;50.804;7.126;2023-03-23T02:22:00;13.50;99.90
33955;DHT22;20233;50.804;7.126;2023-03-23T02:27:46;13.40;99.90
33955;DHT22;20233;50.804;7.126;2023-03-23T02:30:32;13.40;99.90
33955;DHT22;20233;50.804;7.126;2023-03-23T02:36:10;13.30;99.90
33955;DHT22;20233;50.804;7.126;2023-03-23T02:41:56;13.40;99.90
33955;DHT22;20233;50.804;7.126;2023-03-23T02:44:24;13.40;99.90
33955;DHT22;20233;50.804;7.126;2023-03-23T02:46:56;13.40;99.90
33955;DHT22;20233;50.804;7.126;2023-03-23T02:49:24;13.40;99.90
33955;DHT22;20233;50.804;7.126;2023-03-23T02:51:51;13.30;99.90
33955;DHT22;20233;50.804;7.126;2023-03-23T02:54:18;13.30;99.90
33955;DHT22;20233;50.804;7.126;2023-03-23T02:56:45;13.30;99.90
33955;DHT22;20233;50.804;7.126;2023-03-23T02:59:12;13.30;99.90
33955;DHT22;20233;50.804;7.126;2023-03-23T03:04:06;13.10;99.90
33955;DHT22;20233;50.804;7.126;2023-03-23T03:09:50;13.00;99.90
33955;DHT22;20233;50.804;7.126;2023-03-23T03:12:24;13.00;99.90
33955;DHT22;20233;50.804;7.126;2023-03-23T03:17:26;13.00;99.90
33955;DHT22;20233;50.804;7.126;2023-03-23T03:19:57;13.00;99.90
33955;DHT22;20233;50.804;7.126;2023-03-23T03:22:25;12.90;99.90
33955;DHT22;20233;50.804;7.126;2023-03-23T03:24:55;12.90;99.90
33955;DHT22;20233;50.804;7.126;2023-03-23T03:27:23;12.90;99.90
33955;DHT22;20233;50.804;7.126;2023-03-23T03:29:54;12.90;99.90
33955;DHT22;20233;50.804;7.126;2023-03-23T03:32:26;12.80;99.90
33955;DHT22;20233;50.804;7.126;2023-03-23T03:34:58;12.80;99.90
33955;DHT22;20233;50.804;7.126;2023-03-23T03:37:24;12.80;99.90
33955;DHT22;20233;50.804;7.126;2023-03-23T03:39:50;12.90;99.90
33955;DHT22;20233;50.804;7.126;2023-03-23T03:42:16;12.90;99.90
33955;DHT22;20233;50.804;7.126;2023-03-23T03:44:42;13.00;99.90
33955;DHT22;20233;50.804;7.126;2023-03-23T03:47:07;13.00;99.90
33955;DHT22;20233;50.804;7.126;2023-03-23T03:49:33;13.00;99.90
33955;DHT22;20233;50.804;7.126;2023-03-23T03:51:58;12.90;99.90
33955;DHT22;20233;50.804;7.126;2023-03-23T03:54:24;12.90;99.90
33955;DHT22;20233;50.804;7.126;2023-03-23T03:56:50;12.90;99.90
33955;DHT22;20233;50.804;7.126;2023-03-23T03:59:17;12.90;99.90
33955;DHT22;20233;50.804;7.126;2023-03-23T04:01:43;13.00;99.90
33955;DHT22;20233;50.804;7.126;2023-03-23T04:04:08;12.90;99.90
33955;DHT22;20233;50.804;7.126;2023-03-23T04:06:34;12.80;99.90
33955;DHT22;20233;50.804;7.126;2023-03-23T04:09:02;12.90;99.90
33955;DHT22;20233;50.804;7.126;2023-03-23T04:11:31;12.90;99.90
33955;DHT22;20233;50.804;7.126;2023-03-23T04:13:56;12.90;99.90
33955;DHT22;20233;50.804;7.126;2023-03-23T04:16:22;13.00;99.90
33955;DHT22;20233;50.804;7.126;2023-03-23T04:18:48;12.90;99.90
33955;DHT22;20233;50.804;7.126;2023-03-23T04:21:13;12.80;99.90
33955;DHT22;20233;50.804;7.126;2023-03-23T04:23:39;12.80;99.90
33955;DHT22;20233;50.804;7.126;2023-03-23T04:26:06;12.90;99.90
33955;DHT22;20233;50.804;7.126;2023-03-23T04:28:31;12.90;99.90
33955;DHT22;20233;50.804;7.126;2023-03-23T04:31:00;12.90;99.90
33955;DHT22;20233;50.804;7.126;2023-03-23T04:33:28;12.80;99.90
33955;DHT22;20233;50.804;7.126;2023-03-23T04:35:55;12.80;99.90
33955;DHT22;20233;50.804;7.126;2023-03-23T04:38:23;12.90;99.90
33955;DHT22;20233;50.804;7.126;2023-03-23T04:40:51;12.80;99.90
33955;DHT22;20233;50.804;7.126;2023-03-23T04:43:21;12.80;99.90
33955;DHT22;20233;50.804;7.126;2023-03-23T04:45:52;12.80;99.90
33955;DHT22;20233;50.804;7.126;2023-03-23T04:48:22;12.80;99.90
33955;DHT22;20233;50.804;7.126;2023-03-23T04:50:48;12.80;99.90
33955;DHT22;20233;50.804;7.126;2023-03-23T04:53:16;12.80;99.90
33955;DHT22;20233;50.804;7.126;2023-03-23T04:55:43;12.80;99.90
33955;DHT22;20233;50.804;7.126;2023-03-23T04:58:09;12.80;99.90
33955;DHT22;20233;50.804;7.126;2023-03-23T05:00:36;12.80;99.90
33955;DHT22;20233;50.804;7.126;2023-03-23T05:03:02;12.80;99.90
33955;DHT22;20233;50.804;7.126;2023-03-23T05:05:28;12.80;99.90
33955;DHT22;20233;50.804;7.126;2023-03-23T05:07:57;12.80;99.90
33955;DHT22;20233;50.804;7.126;2023-03-23T05:10:23;12.70;99.90
33955;DHT22;20233;50.804;7.126;2023-03-23T05:12:48;12.70;99.90
33955;DHT22;20233;50.804;7.126;2023-03-23T05:15:15;12.70;99.90
33955;DHT22;20233;50.804;7.126;2023-03-23T05:17:42;12.70;99.90
33955;DHT22;20233;50.804;7.126;2023-03-23T05:20:13;12.70;99.90
33955;DHT22;20233;50.804;7.126;2023-03-23T05:22:42;12.60;99.90
33955;DHT22;20233;50.804;7.126;2023-03-23T05:25:09;12.50;99.90
33955;DHT22;20233;50.804;7.126;2023-03-23T05:27:36;12.60;99.90
33955;DHT22;20233;50.804;7.126;2023-03-23T05:30:03;12.60;99.90
33955;DHT22;20233;50.804;7.126;2023-03-23T05:32:29;12.60;99.90
33955;DHT22;20233;50.804;7.126;2023-03-23T05:34:56;12.60;99.90
33955;DHT22;20233;50.804;7.126;2023-03-23T05:37:22;12.50;99.90
33955;DHT22;20233;50.804;7.126;2023-03-23T05:39:48;12.50;99.90
33955;DHT22;20233;50.804;7.126;2023-03-23T05:42:14;12.50;99.90
33955;DHT22;20233;50.804;7.126;2023-03-23T05:44:39;12.50;99.90
33955;DHT22;20233;50.804;7.126;2023-03-23T05:47:05;12.50;99.90
33955;DHT22;20233;50.804;7.126;2023-03-23T05:49:31;12.50;99.90
33955;DHT22;20233;50.804;7.126;2023-03-23T05:51:57;12.50;99.90
33955;DHT22;20233;50.804;7.126;2023-03-23T05:54:22;12.50;99.90
33955;DHT22;20233;50.804;7.126;2023-03-23T05:56:48;12.60;99.90
33955;DHT22;20233;50.804;7.126;2023-03-23T05:59:14;12.60;99.90
33955;DHT22;20233;50.804;7.126;2023-03-23T06:01:40;12.60;99.90
33955;DHT22;20233;50.804;7.126;2023-03-23T06:04:06;12.60;99.90
33955;DHT22;20233;50.804;7.126;2023-03-23T06:06:36;12.60;99.90
33955;DHT22;20233;50.804;7.126;2023-03-23T06:09:08;12.60;99.90
33955;DHT22;20233;50.804;7.126;2023-03-23T06:11:36;12.60;99.90
33955;DHT22;20233;50.804;7.126;2023-03-23T06:14:10;12.60;99.90
33955;DHT22;20233;50.804;7.126;2023-03-23T06:16:38;12.70;99.90
33955;DHT22;20233;50.804;7.126;2023-03-23T06:19:06;12.60;99.90
33955;DHT22;20233;50.804;7.126;2023-03-23T06:21:35;12.70;99.90
33955;DHT22;20233;50.804;7.126;2023-03-23T06:24:04;12.70;99.90
33955;DHT22;20233;50.804;7.126;2023-03-23T06:26:36;12.70;99.90
33955;DHT22;20233;50.804;7.126;2023-03-23T06:29:06;12.70;99.90
33955;DHT22;20233;50.804;7.126;2023-03-23T06:31:41;12.80;99.90
33955;DHT22;20233;50.804;7.126;2023-03-23T06:34:10;12.80;99.90
33955;DHT22;20233;50.804;7.126;2023-03-23T06:36:38;12.80;99.90
33955;DHT22;20233;50.804;7.126;2023-03-23T06:39:09;12.90;99.90
33955;DHT22;20233;50.804;7.126;2023-03-23T06:41:40;12.90;99.90
33955;DHT22;20233;50.804;7.126;2023-03-23T06:44:07;12.90;99.90
33955;DHT22;20233;50.804;7.126;2023-03-23T06:46:34;13.00;99.90
33955;DHT22;20233;50.804;7.126;2023-03-23T06:49:01;13.10;99.90
33955;DHT22;20233;50.804;7.126;2023-03-23T06:51:31;13.10;99.90
33955;DHT22;20233;50.804;7.126;2023-03-23T06:53:58;13.10;99.90
33955;DHT22;20233;50.804;7.126;2023-03-23T06:56:25;13.10;99.90
33955;DHT22;20233;50.804;7.126;2023-03-23T06:58:51;13.20;99.90
33955;DHT22;20233;50.804;7.126;2023-03-23T07:03:44;13.30;99.90
33955;DHT22;20233;50.804;7.126;2023-03-23T07:06:11;13.40;99.90
33955;DHT22;20233;50.804;7.126;2023-03-23T07:08:37;13.30;99.90
33955;DHT22;20233;50.804;7.126;2023-03-23T07:11:06;13.40;99.90
33955;DHT22;20233;50.804;7.126;2023-03-23T07:13:33;13.40;99.90
33955;DHT22;20233;50.804;7.126;2023-03-23T07:16:04;13.40;99.90
33955;DHT22;20233;50.804;7.126;2023-03-23T07:18:32;13.40;99.90
33955;DHT22;20233;50.804;7.126;2023-03-23T07:21:00;13.40;99.90
33955;DHT22;20233;50.804;7.126;2023-03-23T07:23:29;13.40;99.90
33955;DHT22;20233;50.804;7.126;2023-03-23T07:25:55;13.50;99.90
33955;DHT22;20233;50.804;7.126;2023-03-23T07:28:22;13.40;99.90
33955;DHT22;20233;50.804;7.126;2023-03-23T07:30:49;13.50;99.90
33955;DHT22;20233;50.804;7.126;2023-03-23T07:33:19;13.50;99.90
33955;DHT22;20233;50.804;7.126;2023-03-23T07:35:49;13.60;99.90
33955;DHT22;20233;50.804;7.126;2023-03-23T07:38:18;13.70;99.90
33955;DHT22;20233;50.804;7.126;2023-03-23T07:40:46;13.70;99.90
33955;DHT22;20233;50.804;7.126;2023-03-23T07:43:13;13.70;99.90
33955;DHT22;20233;50.804;7.126;2023-03-23T07:45:39;13.60;99.90
33955;DHT22;20233;50.804;7.126;2023-03-23T07:48:06;13.60;99.90
33955;DHT22;20233;50.804;7.126;2023-03-23T07:50:35;13.70;99.90
33955;DHT22;20233;50.804;7.126;2023-03-23T07:53:03;13.80;99.90
33955;DHT22;20233;50.804;7.126;2023-03-23T07:55:30;13.80;99.90
33955;DHT22;20233;50.804;7.126;2023-03-23T07:58:02;13.90;99.90
33955;DHT22;20233;50.804;7.126;2023-03-23T08:00:27;13.90;99.90
33955;DHT22;20233;50.804;7.126;2023-03-23T08:02:55;13.80;99.90
33955;DHT22;20233;50.804;7.126;2023-03-23T08:05:23;13.90;99.90
33955;DHT22;20233;50.804;7.126;2023-03-23T08:07:52;13.90;99.90
33955;DHT22;20233;50.804;7.126;2023-03-23T08:10:22;13.90;99.90
33955;DHT22;20233;50.804;7.126;2023-03-23T08:12:54;14.00;99.90
33955;DHT22;20233;50.804;7.126;2023-03-23T08:15:22;14.00;99.90
33955;DHT22;20233;50.804;7.126;2023-03-23T08:17:49;14.10;99.90
33955;DHT22;20233;50.804;7.126;2023-03-23T08:20:17;14.10;99.90
33955;DHT22;20233;50.804;7.126;2023-03-23T08:22:49;14.20;99.90
33955;DHT22;20233;50.804;7.126;2023-03-23T08:25:15;14.20;99.90
33955;DHT22;20233;50.804;7.126;2023-03-23T08:27:43;14.20;99.90
33955;DHT22;20233;50.804;7.126;2023-03-23T08:30:17;14.20;99.90
33955;DHT22;20233;50.804;7.126;2023-03-23T08:32:46;14.30;99.90
33955;DHT22;20233;50.804;7.126;2023-03-23T08:35:15;14.30;99.90
33955;DHT22;20233;50.804;7.126;2023-03-23T08:37:42;14.40;99.90
33955;DHT22;20233;50.804;7.126;2023-03-23T08:40:11;14.40;99.90
33955;DHT22;20233;50.804;7.126;2023-03-23T08:42:43;14.40;99.90
33955;DHT22;20233;50.804;7.126;2023-03-23T08:45:13;14.40;99.90
33955;DHT22;20233;50.804;7.126;2023-03-23T08:47:41;14.40;99.90
33955;DHT22;20233;50.804;7.126;2023-03-23T08:50:10;14.40;99.90
33955;DHT22;20233;50.804;7.126;2023-03-23T08:52:38;14.50;99.90
33955;DHT22;20233;50.804;7.126;2023-03-23T08:55:06;14.50;99.90
33955;DHT22;20233;50.804;7.126;2023-03-23T08:57:35;14.50;99.90
33955;DHT22;20233;50.804;7.126;2023-03-23T09:00:08;14.60;99.90
33955;DHT22;20233;50.804;7.126;2023-03-23T09:02:52;14.60;99.90
33955;DHT22;20233;50.804;7.126;2023-03-23T09:05:22;14.60;99.90
33955;DHT22;20233;50.804;7.126;2023-03-23T09:07:53;14.70;99.90
33955;DHT22;20233;50.804;7.126;2023-03-23T09:10:22;14.70;99.90
33955;DHT22;20233;50.804;7.126;2023-03-23T09:12:53;14.80;99.90
33955;DHT22;20233;50.804;7.126;2023-03-23T09:15:22;14.80;99.90
33955;DHT22;20233;50.804;7.126;2023-03-23T09:17:51;14.80;99.90
33955;DHT22;20233;50.804;7.126;2023-03-23T09:20:21;14.80;99.90
33955;DHT22;20233;50.804;7.126;2023-03-23T09:22:53;14.90;99.90
33955;DHT22;20233;50.804;7.126;2023-03-23T09:25:23;14.90;99.90
33955;DHT22;20233;50.804;7.126;2023-03-23T09:27:54;14.90;99.90
33955;DHT22;20233;50.804;7.126;2023-03-23T09:30:28;14.90;99.90
33955;DHT22;20233;50.804;7.126;2023-03-23T09:32:57;14.90;99.90
33955;DHT22;20233;50.804;7.126;2023-03-23T09:35:28;14.90;99.90
33955;DHT22;20233;50.804;7.126;2023-03-23T09:37:57;14.90;99.90
33955;DHT22;20233;50.804;7.126;2023-03-23T09:44:01;14.90;99.90
33955;DHT22;20233;50.804;7.126;2023-03-23T09:46:32;14.90;99.90
33955;DHT22;20233;50.804;7.126;2023-03-23T09:49:37;14.90;99.90
33955;DHT22;20233;50.804;7.126;2023-03-23T09:52:17;14.90;99.90
33955;DHT22;20233;50.804;7.126;2023-03-23T09:54:51;14.90;99.90
33955;DHT22;20233;50.804;7.126;2023-03-23T09:57:59;15.00;99.90
33955;DHT22;20233;50.804;7.126;2023-03-23T10:00:36;14.90;99.90
33955;DHT22;20233;50.804;7.126;2023-03-23T10:03:34;14.80;99.90
33955;DHT22;20233;50.804;7.126;2023-03-23T10:06:02;14.80;99.90
33955;DHT22;20233;50.804;7.126;2023-03-23T10:08:30;14.80;99.90
33955;DHT22;20233;50.804;7.126;2023-03-23T10:11:05;14.80;99.90
33955;DHT22;20233;50.804;7.126;2023-03-23T10:16:11;15.00;99.90
33955;DHT22;20233;50.804;7.126;2023-03-23T10:21:50;15.30;99.90
33955;DHT22;20233;50.804;7.126;2023-03-23T10:24:21;15.40;99.90
33955;DHT22;20233;50.804;7.126;2023-03-23T10:29:29;15.60;99.90
33955;DHT22;20233;50.804;7.126;2023-03-23T10:31:59;15.50;99.90
33955;DHT22;20233;50.804;7.126;2023-03-23T10:37:12;15.40;99.90
33955;DHT22;20233;50.804;7.126;2023-03-23T10:39:51;15.40;99.90
33955;DHT22;20233;50.804;7.126;2023-03-23T10:42:32;15.20;99.90
33955;DHT22;20233;50.804;7.126;2023-03-23T10:45:00;15.20;99.90
33955;DHT22;20233;50.804;7.126;2023-03-23T10:47:36;15.20;99.90
33955;DHT22;20233;50.804;7.126;2023-03-23T10:50:06;15.30;99.90
33955;DHT22;20233;50.804;7.126;2023-03-23T10:52:39;15.30;99.90
33955;DHT22;20233;50.804;7.126;2023-03-23T10:55:18;15.20;99.90
33955;DHT22;20233;50.804;7.126;2023-03-23T10:58:03;15.20;99.90
33955;DHT22;20233;50.804;7.126;2023-03-23T11:00:32;15.30;99.90
33955;DHT22;20233;50.804;7.126;2023-03-23T11:08:15;15.70;99.90
33955;DHT22;20233;50.804;7.126;2023-03-23T11:10:54;15.70;99.90
33955;DHT22;20233;50.804;7.126;2023-03-23T11:15:51;15.80;99.90
33955;DHT22;20233;50.804;7.126;2023-03-23T11:21:08;15.70;99.90
33955;DHT22;20233;50.804;7.126;2023-03-23T11:23:36;15.70;99.90
33955;DHT22;20233;50.804;7.126;2023-03-23T11:29:18;15.80;99.90
33955;DHT22;20233;50.804;7.126;2023-03-23T11:32:06;15.80;99.90
33955;DHT22;20233;50.804;7.126;2023-03-23T11:34:42;15.80;99.90
33955;DHT22;20233;50.804;7.126;2023-03-23T11:37:19;15.90;99.90
33955;DHT22;20233;50.804;7.126;2023-03-23T11:39:55;15.90;99.90
33955;DHT22;20233;50.804;7.126;2023-03-23T11:45:21;15.70;99.90
33955;DHT22;20233;50.804;7.126;2023-03-23T11:51:03;15.80;99.90
33955;DHT22;20233;50.804;7.126;2023-03-23T11:53:47;15.90;99.90
33955;DHT22;20233;50.804;7.126;2023-03-23T11:59:01;16.20;99.90
33955;DHT22;20233;50.804;7.126;2023-03-23T12:02:00;16.20;99.90
33955;DHT22;20233;50.804;7.126;2023-03-23T12:07:40;16.10;99.90
33955;DHT22;20233;50.804;7.126;2023-03-23T12:16:19;16.20;99.90
33955;DHT22;20233;50.804;7.126;2023-03-23T12:19:00;16.20;99.90
33955;DHT22;20233;50.804;7.126;2023-03-23T12:21:36;16.30;99.90
33955;DHT22;20233;50.804;7.126;2023-03-23T12:24:21;16.40;99.90
33955;DHT22;20233;50.804;7.126;2023-03-23T12:27:32;16.50;99.90
33955;DHT22;20233;50.804;7.126;2023-03-23T12:32:50;16.60;99.90
33955;DHT22;20233;50.804;7.126;2023-03-23T12:41:15;16.50;99.90
33955;DHT22;20233;50.804;7.126;2023-03-23T12:55:02;16.40;99.90
33955;DHT22;20233;50.804;7.126;2023-03-23T12:57:40;16.30;99.90
33955;DHT22;20233;50.804;7.126;2023-03-23T13:00:24;16.20;99.90
33955;DHT22;20233;50.804;7.126;2023-03-23T13:08:37;16.10;99.90
33955;DHT22;20233;50.804;7.126;2023-03-23T13:11:40;16.10;99.90
33955;DHT22;20233;50.804;7.126;2023-03-23T13:14:31;16.10;99.90
33955;DHT22;20233;50.804;7.126;2023-03-23T13:28:29;16.20;99.90
33955;DHT22;20233;50.804;7.126;2023-03-23T13:31:20;16.30;99.90
33955;DHT22;20233;50.804;7.126;2023-03-23T13:33:53;16.40;99.90
33955;DHT22;20233;50.804;7.126;2023-03-23T13:36:51;16.50;99.90
33955;DHT22;20233;50.804;7.126;2023-03-23T13:39:30;16.40;99.90
33955;DHT22;20233;50.804;7.126;2023-03-23T13:52:50;16.50;99.90
33955;DHT22;20233;50.804;7.126;2023-03-23T13:55:40;16.50;99.90
33955;DHT22;20233;50.804;7.126;2023-03-23T13:58:10;16.50;99.90
33955;DHT22;20233;50.804;7.126;2023-03-23T14:03:53;16.70;99.90
33955;DHT22;20233;50.804;7.126;2023-03-23T14:06:22;16.70;99.90
33955;DHT22;20233;50.804;7.126;2023-03-23T14:08:56;16.70;99.90
33955;DHT22;20233;50.804;7.126;2023-03-23T14:11:33;16.60;99.90
33955;DHT22;20233;50.804;7.126;2023-03-23T14:14:15;16.60;99.90
33955;DHT22;20233;50.804;7.126;2023-03-23T14:16:44;16.60;99.90
33955;DHT22;20233;50.804;7.126;2023-03-23T14:19:36;16.60;99.90
33955;DHT22;20233;50.804;7.126;2023-03-23T14:24:43;16.50;99.90
33955;DHT22;20233;50.804;7.126;2023-03-23T14:27:19;16.50;99.90
33955;DHT22;20233;50.804;7.126;2023-03-23T14:30:09;16.40;99.90
33955;DHT22;20233;50.804;7.126;2023-03-23T14:32:40;16.40;99.90
33955;DHT22;20233;50.804;7.126;2023-03-23T14:35:24;16.40;99.90
33955;DHT22;20233;50.804;7.126;2023-03-23T14:37:56;16.30;99.90
33955;DHT22;20233;50.804;7.126;2023-03-23T14:40:27;16.30;99.90
33955;DHT22;20233;50.804;7.126;2023-03-23T14:42:56;16.30;99.90
33955;DHT22;20233;50.804;7.126;2023-03-23T14:45:25;16.30;99.90
33955;DHT22;20233;50.804;7.126;2023-03-23T14:47:58;16.40;99.90
33955;DHT22;20233;50.804;7.126;2023-03-23T14:50:42;16.40;99.90
33955;DHT22;20233;50.804;7.126;2023-03-23T14:53:37;16.40;99.90
33955;DHT22;20233;50.804;7.126;2023-03-23T14:56:16;16.30;99.90
33955;DHT22;20233;50.804;7.126;2023-03-23T14:58:48;16.40;99.90
33955;DHT22;20233;50.804;7.126;2023-03-23T15:01:29;16.30;99.90
33955;DHT22;20233;50.804;7.126;2023-03-23T15:06:38;16.30;99.90
33955;DHT22;20233;50.804;7.126;2023-03-23T15:09:12;16.30;99.90
33955;DHT22;20233;50.804;7.126;2023-03-23T15:15:07;16.40;99.90
33955;DHT22;20233;50.804;7.126;2023-03-23T15:17:45;16.50;99.90
33955;DHT22;20233;50.804;7.126;2023-03-23T15:20:31;16.60;99.90
33955;DHT22;20233;50.804;7.126;2023-03-23T15:23:07;16.70;99.90
33955;DHT22;20233;50.804;7.126;2023-03-23T15:25:36;16.70;99.90
33955;DHT22;20233;50.804;7.126;2023-03-23T15:28:18;16.90;99.90
33955;DHT22;20233;50.804;7.126;2023-03-23T15:30:55;16.90;99.90
33955;DHT22;20233;50.804;7.126;2023-03-23T15:33:25;16.90;99.90
33955;DHT22;20233;50.804;7.126;2023-03-23T15:35:55;16.90;99.90
33955;DHT22;20233;50.804;7.126;2023-03-23T15:38:31;16.90;99.90
33955;DHT22;20233;50.804;7.126;2023-03-23T15:41:04;16.80;99.90
33955;DHT22;20233;50.804;7.126;2023-03-23T15:43:36;16.90;99.90
33955;DHT22;20233;50.804;7.126;2023-03-23T15:48:53;17.00;99.90
33955;DHT22;20233;50.804;7.126;2023-03-23T15:51:29;17.10;99.90
33955;DHT22;20233;50.804;7.126;2023-03-23T15:53:57;17.10;99.90
33955;DHT22;20233;50.804;7.126;2023-03-23T15:56:26;17.20;99.90
33955;DHT22;20233;50.804;7.126;2023-03-23T15:58:56;17.30;99.90
33955;DHT22;20233;50.804;7.126;2023-03-23T16:03:56;17.60;99.90
33955;DHT22;20233;50.804;7.126;2023-03-23T16:06:27;17.60;99.90
33955;DHT22;20233;50.804;7.126;2023-03-23T16:08:55;17.40;99.90
33955;DHT22;20233;50.804;7.126;2023-03-23T16:11:25;17.40;99.90
33955;DHT22;20233;50.804;7.126;2023-03-23T16:13:52;17.30;99.90
33955;DHT22;20233;50.804;7.126;2023-03-23T16:18:59;17.20;99.90
33955;DHT22;20233;50.804;7.126;2023-03-23T16:21:25;17.10;99.90
33955;DHT22;20233;50.804;7.126;2023-03-23T16:23:51;17.10;99.90
33955;DHT22;20233;50.804;7.126;2023-03-23T16:26:19;17.20;99.90
33955;DHT22;20233;50.804;7.126;2023-03-23T16:28:53;17.20;99.90
33955;DHT22;20233;50.804;7.126;2023-03-23T16:31:20;17.20;99.90
33955;DHT22;20233;50.804;7.126;2023-03-23T16:33:48;17.10;99.90
33955;DHT22;20233;50.804;7.126;2023-03-23T16:36:15;17.10;99.90
33955;DHT22;20233;50.804;7.126;2023-03-23T16:38:45;17.00;99.90
33955;DHT22;20233;50.804;7.126;2023-03-23T16:41:13;17.00;99.90
33955;DHT22;20233;50.804;7.126;2023-03-23T16:43:42;17.00;99.90
33955;DHT22;20233;50.804;7.126;2023-03-23T16:46:13;16.90;99.90
33955;DHT22;20233;50.804;7.126;2023-03-23T16:48:39;16.80;99.90
33955;DHT22;20233;50.804;7.126;2023-03-23T16:51:05;16.70;99.90
33955;DHT22;20233;50.804;7.126;2023-03-23T16:53:32;16.70;99.90
33955;DHT22;20233;50.804;7.126;2023-03-23T16:56:01;16.70;99.90
33955;DHT22;20233;50.804;7.126;2023-03-23T16:58:29;16.70;99.90
33955;DHT22;20233;50.804;7.126;2023-03-23T17:00:55;16.70;99.90
33955;DHT22;20233;50.804;7.126;2023-03-23T17:03:31;16.70;99.90
33955;DHT22;20233;50.804;7.126;2023-03-23T17:06:00;16.60;99.90
33955;DHT22;20233;50.804;7.126;2023-03-23T17:08:28;16.60;99.90
33955;DHT22;20233;50.804;7.126;2023-03-23T17:10:55;16.50;99.90
33955;DHT22;20233;50.804;7.126;2023-03-23T17:13:22;16.50;99.90
33955;DHT22;20233;50.804;7.126;2023-03-23T17:15:53;16.40;99.90
33955;DHT22;20233;50.804;7.126;2023-03-23T17:18:22;16.30;99.90
33955;DHT22;20233;50.804;7.126;2023-03-23T17:20:49;16.20;99.90
33955;DHT22;20233;50.804;7.126;2023-03-23T17:23:17;16.10;99.90
33955;DHT22;20233;50.804;7.126;2023-03-23T17:25:48;16.00;99.90
33955;DHT22;20233;50.804;7.126;2023-03-23T17:28:16;15.80;99.90
33955;DHT22;20233;50.804;7.126;2023-03-23T17:30:44;15.90;99.90
33955;DHT22;20233;50.804;7.126;2023-03-23T17:33:13;15.80;99.90
33955;DHT22;20233;50.804;7.126;2023-03-23T17:35:43;15.80;99.90
33955;DHT22;20233;50.804;7.126;2023-03-23T17:38:13;15.70;99.90
33955;DHT22;20233;50.804;7.126;2023-03-23T17:40:44;15.70;99.90
33955;DHT22;20233;50.804;7.126;2023-03-23T17:43:11;15.60;99.90
33955;DHT22;20233;50.804;7.126;2023-03-23T17:45:37;15.60;99.90
33955;DHT22;20233;50.804;7.126;2023-03-23T17:48:04;15.70;99.90
33955;DHT22;20233;50.804;7.126;2023-03-23T17:50:34;15.60;99.90
33955;DHT22;20233;50.804;7.126;2023-03-23T17:53:01;15.70;99.90
33955;DHT22;20233;50.804;7.126;2023-03-23T17:55:28;15.70;99.90
33955;DHT22;20233;50.804;7.126;2023-03-23T17:57:55;15.60;99.90
33955;DHT22;20233;50.804;7.126;2023-03-23T18:00:22;15.60;99.90
33955;DHT22;20233;50.804;7.126;2023-03-23T18:02:53;15.60;99.90
33955;DHT22;20233;50.804;7.126;2023-03-23T18:05:21;15.60;99.90
33955;DHT22;20233;50.804;7.126;2023-03-23T18:07:50;15.60;99.90
33955;DHT22;20233;50.804;7.126;2023-03-23T18:10:16;15.60;99.90